createdAt,value
2023-03-04T00:00:34.307Z,23.23
2023-03-04T00:03:02.076Z,23.53
2023-03-04T00:05:31.753Z,25.30
2023-03-04T00:07:59.541Z,24.87
2023-03-04T00:10:27.349Z,24.40
2023-03-04T00:12:55.191Z,24.73
2023-03-04T00:15:22.974Z,24.80
2023-03-04T00:17:50.953Z,24.07
2023-03-04T00:20:18.972Z,26.37
2023-03-04T00:22:47.999Z,22.73
2023-03-04T00:25:16.107Z,25.10
2023-03-04T00:27:43.855Z,24.63
2023-03-04T00:30:12.131Z,24.33
2023-03-04T00:32:39.894Z,25.17
2023-03-04T00:35:08.240Z,24.57
2023-03-04T00:37:36.093Z,25.13
2023-03-04T00:40:04.026Z,25.60
2023-03-04T00:42:31.816Z,25.33
2023-03-04T00:44:59.541Z,23.60
2023-03-04T00:47:27.299Z,26.50
2023-03-04T00:49:55.059Z,24.70
2023-03-04T00:52:22.813Z,24.87
2023-03-04T00:54:50.560Z,25.63
2023-03-04T00:57:18.255Z,26.00
2023-03-04T00:59:47.415Z,26.23
2023-03-04T01:02:15.237Z,25.40
2023-03-04T01:04:43.126Z,24.50
2023-03-04T01:07:10.991Z,23.80
2023-03-04T01:09:38.764Z,23.40
2023-03-04T01:12:06.685Z,24.63
2023-03-04T01:14:34.498Z,23.57
2023-03-04T01:17:02.428Z,25.67
2023-03-04T01:19:30.233Z,24.97
2023-03-04T01:21:58.066Z,26.23
2023-03-04T01:24:25.903Z,24.43
2023-03-04T01:26:53.635Z,24.77
2023-03-04T01:29:21.380Z,27.10
2023-03-04T01:31:49.270Z,28.93
2023-03-04T01:34:17.104Z,27.70
2023-03-04T01:36:44.866Z,27.97
2023-03-04T01:39:12.609Z,26.77
2023-03-04T01:41:40.402Z,26.77
2023-03-04T01:44:08.130Z,26.33
2023-03-04T01:46:35.883Z,26.23
2023-03-04T01:49:03.859Z,27.23
2023-03-04T01:51:31.627Z,24.90
2023-03-04T01:53:59.479Z,26.43
2023-03-04T01:56:30.434Z,26.97
2023-03-04T01:59:13.191Z,24.83
2023-03-04T02:01:41.358Z,25.37
2023-03-04T02:04:09.384Z,26.00
2023-03-04T02:06:38.374Z,23.90
2023-03-04T02:09:06.849Z,24.80
2023-03-04T02:11:35.488Z,26.63
2023-03-04T02:14:03.263Z,25.13
2023-03-04T02:16:31.038Z,25.77
2023-03-04T02:18:58.844Z,28.00
2023-03-04T02:21:33.501Z,24.47
2023-03-04T02:24:31.730Z,23.83
2023-03-04T02:27:00.134Z,23.87
2023-03-04T02:29:27.950Z,23.93
2023-03-04T02:31:55.994Z,26.60
2023-03-04T02:34:25.325Z,25.33
2023-03-04T02:36:53.920Z,24.57
2023-03-04T02:39:21.555Z,24.67
2023-03-04T02:41:49.863Z,25.20
2023-03-04T02:44:19.757Z,24.93
2023-03-04T02:46:47.805Z,22.67
2023-03-04T02:49:15.630Z,25.90
2023-03-04T02:51:43.322Z,24.67
2023-03-04T02:54:18.611Z,24.47
2023-03-04T02:56:50.024Z,24.23
2023-03-04T02:59:17.853Z,25.63
2023-03-04T03:01:45.785Z,26.47
2023-03-04T03:04:14.146Z,23.57
2023-03-04T03:06:42.206Z,25.80
2023-03-04T03:09:10.131Z,25.30
2023-03-04T03:11:37.970Z,24.50
2023-03-04T03:14:05.883Z,25.40
2023-03-04T03:16:33.713Z,24.67
2023-03-04T03:19:01.595Z,24.30
2023-03-04T03:21:29.440Z,24.53
2023-03-04T03:23:57.329Z,24.00
2023-03-04T03:26:25.127Z,24.63
2023-03-04T03:28:52.860Z,25.07
2023-03-04T03:31:21.213Z,23.07
2023-03-04T03:33:48.991Z,26.20
2023-03-04T03:36:16.865Z,25.57
2023-03-04T03:38:44.911Z,25.27
2023-03-04T03:41:12.711Z,22.83
2023-03-04T03:43:40.449Z,24.00
2023-03-04T03:46:08.241Z,25.37
2023-03-04T03:48:36.038Z,24.10
2023-03-04T03:51:03.768Z,23.50
2023-03-04T03:53:31.593Z,23.10
2023-03-04T03:56:00.217Z,24.40
2023-03-04T03:58:28.276Z,24.50
2023-03-04T04:00:58.331Z,24.13
2023-03-04T04:03:26.488Z,23.33
2023-03-04T04:05:54.290Z,24.77
2023-03-04T04:08:22.028Z,23.30
2023-03-04T04:10:49.800Z,24.57
2023-03-04T04:13:17.560Z,26.00
2023-03-04T04:15:45.300Z,25.70
2023-03-04T04:18:13.108Z,26.23
2023-03-04T04:20:40.988Z,24.00
2023-03-04T04:23:08.780Z,24.00
2023-03-04T04:25:36.688Z,25.00
2023-03-04T04:28:04.471Z,24.70
2023-03-04T04:30:32.465Z,23.03
2023-03-04T04:33:02.910Z,25.30
2023-03-04T04:35:30.789Z,25.13
2023-03-04T04:37:58.514Z,24.77
2023-03-04T04:40:26.297Z,25.67
2023-03-04T04:42:54.113Z,25.30
2023-03-04T04:45:21.938Z,25.47
2023-03-04T04:47:49.780Z,24.40
2023-03-04T04:50:17.854Z,24.53
2023-03-04T04:52:45.677Z,25.57
2023-03-04T04:55:13.505Z,26.03
2023-03-04T04:57:41.379Z,25.67
2023-03-04T05:00:11.204Z,25.37
2023-03-04T05:02:39.206Z,25.33
2023-03-04T05:05:07.857Z,26.57
2023-03-04T05:07:35.765Z,25.07
2023-03-04T05:10:03.625Z,25.23
2023-03-04T05:12:31.341Z,24.57
2023-03-04T05:14:59.205Z,24.43
2023-03-04T05:17:27.002Z,25.03
2023-03-04T05:19:54.742Z,25.10
2023-03-04T05:22:22.495Z,26.83
2023-03-04T05:24:50.396Z,25.83
2023-03-04T05:27:18.174Z,26.60
2023-03-04T05:29:47.946Z,26.33
2023-03-04T05:32:15.879Z,25.80
2023-03-04T05:34:43.601Z,24.33
2023-03-04T05:37:11.365Z,27.63
2023-03-04T05:39:39.120Z,25.40
2023-03-04T05:42:06.922Z,27.23
2023-03-04T05:44:34.618Z,26.30
2023-03-04T05:47:02.441Z,25.77
2023-03-04T05:49:30.418Z,26.90
2023-03-04T05:51:58.140Z,26.47
2023-03-04T05:54:25.915Z,24.60
2023-03-04T05:56:53.881Z,26.40
2023-03-04T05:59:21.744Z,25.47
2023-03-04T06:01:49.549Z,25.23
2023-03-04T06:04:17.481Z,27.80
2023-03-04T06:06:47.614Z,24.93
2023-03-04T06:09:15.902Z,26.73
2023-03-04T06:11:43.749Z,27.77
2023-03-04T06:14:11.608Z,28.20
2023-03-04T06:16:39.431Z,25.83
2023-03-04T06:19:07.257Z,29.90
2023-03-04T06:21:35.089Z,28.10
2023-03-04T06:24:02.970Z,29.77
2023-03-04T06:26:30.684Z,28.40
2023-03-04T06:28:58.602Z,30.87
2023-03-04T06:31:26.419Z,31.63
2023-03-04T06:33:54.179Z,30.47
2023-03-04T06:36:22.031Z,30.40
2023-03-04T06:38:49.794Z,29.77
2023-03-04T06:41:17.798Z,30.87
2023-03-04T06:43:45.606Z,31.80
2023-03-04T06:46:13.447Z,32.10
2023-03-04T06:48:41.294Z,30.87
2023-03-04T06:51:10.180Z,30.77
2023-03-04T06:53:38.362Z,32.60
2023-03-04T06:56:06.728Z,31.50
2023-03-04T06:58:34.601Z,31.47
2023-03-04T07:01:25.050Z,31.13
2023-03-04T07:03:53.387Z,32.83
2023-03-04T07:06:22.758Z,29.73
2023-03-04T07:08:50.543Z,31.20
2023-03-04T07:11:18.458Z,29.93
2023-03-04T07:13:46.203Z,31.40
2023-03-04T07:16:16.088Z,30.13
2023-03-04T07:18:43.935Z,31.17
2023-03-04T07:21:11.854Z,30.83
2023-03-04T07:23:39.959Z,29.93
2023-03-04T07:26:07.971Z,31.07
2023-03-04T07:28:36.501Z,30.03
2023-03-04T07:31:11.643Z,30.23
2023-03-04T07:33:39.419Z,19.80
2023-03-04T07:36:07.441Z,30.73
2023-03-04T07:38:35.352Z,32.97
2023-03-04T07:41:03.340Z,32.50
2023-03-04T07:43:31.163Z,32.17
2023-03-04T07:46:02.989Z,29.37
2023-03-04T07:48:30.802Z,29.23
2023-03-04T07:51:06.513Z,27.87
2023-03-04T07:53:34.576Z,29.87
2023-03-04T07:56:02.823Z,29.00
2023-03-04T07:58:30.814Z,28.73
2023-03-04T08:00:58.802Z,30.57
2023-03-04T08:03:27.444Z,28.40
2023-03-04T08:05:55.212Z,29.83
2023-03-04T08:08:22.977Z,29.03
2023-03-04T08:10:50.767Z,29.00
2023-03-04T08:13:18.629Z,27.73
2023-03-04T08:15:46.434Z,28.30
2023-03-04T08:18:14.259Z,29.83
2023-03-04T08:20:45.195Z,28.73
2023-03-04T08:23:13.108Z,29.43
2023-03-04T08:25:41.780Z,29.37
2023-03-04T08:28:09.951Z,27.90
2023-03-04T08:30:38.026Z,29.07
2023-03-04T08:33:05.904Z,28.27
2023-03-04T08:35:34.043Z,28.27
2023-03-04T08:38:02.598Z,28.27
2023-03-04T08:40:32.153Z,27.30
2023-03-04T08:43:00.098Z,28.97
2023-03-04T08:45:27.959Z,28.67
2023-03-04T08:47:55.819Z,28.93
2023-03-04T08:50:23.775Z,28.33
2023-03-04T08:52:51.475Z,28.73
2023-03-04T08:55:19.417Z,30.33
2023-03-04T08:57:47.394Z,26.80
2023-03-04T09:00:16.076Z,29.07
2023-03-04T09:02:44.019Z,30.07
2023-03-04T09:05:11.852Z,28.40
2023-03-04T09:07:39.773Z,29.07
2023-03-04T09:10:08.065Z,28.27
2023-03-04T09:12:35.938Z,27.67
2023-03-04T09:15:11.215Z,28.80
2023-03-04T09:17:40.825Z,29.57
2023-03-04T09:20:11.523Z,27.63
2023-03-04T09:22:40.029Z,26.87
2023-03-04T09:25:12.182Z,30.70
2023-03-04T09:27:40.872Z,28.77
2023-03-04T09:30:09.853Z,27.07
2023-03-04T09:32:37.929Z,29.13
2023-03-04T09:35:06.227Z,30.23
2023-03-04T09:37:34.094Z,27.50
2023-03-04T09:40:02.141Z,28.40
2023-03-04T09:42:36.803Z,27.83
2023-03-04T09:45:08.544Z,28.37
2023-03-04T09:47:36.917Z,30.63
2023-03-04T09:50:08.678Z,29.03
2023-03-04T09:53:09.356Z,28.47
2023-03-04T09:55:40.518Z,28.40
2023-03-04T09:58:15.189Z,27.70
2023-03-04T10:00:45.149Z,27.57
2023-03-04T10:03:20.492Z,29.73
2023-03-04T10:06:07.695Z,29.27
2023-03-04T10:09:11.745Z,30.57
2023-03-04T10:11:46.517Z,29.47
2023-03-04T10:14:23.563Z,29.47
2023-03-04T10:17:01.660Z,29.43
2023-03-04T10:19:42.744Z,27.87
2023-03-04T10:22:18.404Z,29.63
2023-03-04T10:24:48.389Z,29.00
2023-03-04T10:27:18.148Z,29.03
2023-03-04T10:29:48.651Z,31.47
2023-03-04T10:32:19.004Z,31.37
2023-03-04T10:34:46.916Z,31.90
2023-03-04T10:37:14.704Z,29.73
2023-03-04T10:39:44.052Z,30.37
2023-03-04T10:42:17.685Z,30.80
2023-03-04T10:44:57.035Z,32.63
2023-03-04T10:47:26.473Z,31.70
2023-03-04T10:49:59.218Z,31.50
2023-03-04T10:52:48.947Z,32.27
2023-03-04T10:55:42.674Z,31.60
2023-03-04T10:58:14.404Z,33.60
2023-03-04T11:00:42.305Z,33.10
2023-03-04T11:03:29.783Z,30.87
2023-03-04T11:06:23.314Z,32.43
2023-03-04T11:08:58.323Z,31.77
2023-03-04T11:11:35.605Z,32.53
2023-03-04T11:14:51.436Z,32.20
2023-03-04T11:17:21.863Z,31.67
2023-03-04T11:20:11.849Z,32.00
2023-03-04T11:22:39.619Z,33.80
2023-03-04T11:25:09.278Z,32.67
2023-03-04T11:27:43.935Z,32.30
2023-03-04T11:30:39.834Z,32.63
2023-03-04T11:33:15.888Z,33.30
2023-03-04T11:36:00.847Z,32.27
2023-03-04T11:38:34.756Z,31.17
2023-03-04T11:41:06.218Z,34.83
2023-03-04T11:43:37.193Z,33.90
2023-03-04T11:46:27.295Z,36.33
2023-03-04T11:49:03.184Z,33.90
2023-03-04T11:51:36.417Z,32.77
2023-03-04T11:54:29.029Z,34.93
2023-03-04T11:57:35.292Z,33.53
2023-03-04T12:00:18.428Z,34.37
2023-03-04T12:03:24.299Z,33.50
2023-03-04T12:06:00.996Z,31.60
2023-03-04T12:08:39.566Z,34.97
2023-03-04T12:11:08.174Z,32.47
2023-03-04T12:13:48.348Z,32.93
2023-03-04T12:16:35.084Z,35.00
2023-03-04T12:19:21.856Z,34.63
2023-03-04T12:22:11.851Z,32.27
2023-03-04T12:25:27.793Z,32.17
2023-03-04T12:28:35.721Z,33.87
2023-03-04T12:31:24.571Z,33.17
2023-03-04T12:34:14.895Z,33.53
2023-03-04T12:36:55.050Z,32.00
2023-03-04T12:39:36.671Z,31.03
2023-03-04T12:42:19.554Z,31.93
2023-03-04T12:44:49.662Z,30.20
2023-03-04T12:47:24.060Z,32.13
2023-03-04T12:50:19.128Z,31.80
2023-03-04T12:52:59.891Z,32.47
2023-03-04T12:55:36.594Z,32.97
2023-03-04T12:58:04.491Z,31.17
2023-03-04T13:01:10.039Z,32.30
2023-03-04T13:03:45.880Z,32.50
2023-03-04T13:06:33.394Z,32.27
2023-03-04T13:09:10.018Z,30.50
2023-03-04T13:11:49.904Z,32.50
2023-03-04T13:14:19.322Z,31.50
2023-03-04T13:16:49.437Z,31.07
2023-03-04T13:19:46.264Z,32.17
2023-03-04T13:22:42.310Z,33.97
2023-03-04T13:25:35.020Z,33.33
2023-03-04T13:28:14.672Z,34.20
2023-03-04T13:30:43.246Z,31.53
2023-03-04T13:33:14.676Z,31.97
2023-03-04T13:35:48.508Z,33.30
2023-03-04T13:38:28.496Z,31.23
2023-03-04T13:41:21.245Z,32.73
2023-03-04T13:43:59.619Z,33.73
2023-03-04T13:46:28.650Z,33.43
2023-03-04T13:48:56.526Z,33.23
2023-03-04T13:51:34.050Z,34.50
2023-03-04T13:54:02.048Z,32.37
2023-03-04T13:56:42.930Z,31.77
2023-03-04T13:59:10.635Z,31.40
2023-03-04T14:01:44.170Z,31.47
2023-03-04T14:04:17.571Z,32.23
2023-03-04T14:06:46.551Z,31.27
2023-03-04T14:09:16.211Z,30.40
2023-03-04T14:11:44.088Z,29.40
2023-03-04T14:14:17.544Z,30.97
2023-03-04T14:16:56.850Z,31.50
2023-03-04T14:19:29.923Z,30.30
2023-03-04T14:21:58.076Z,32.27
2023-03-04T14:24:26.026Z,31.00
2023-03-04T14:27:12.877Z,32.40
2023-03-04T14:29:40.730Z,31.10
2023-03-04T14:32:09.008Z,30.27
2023-03-04T14:34:38.515Z,32.43
2023-03-04T14:37:21.431Z,32.70
2023-03-04T14:39:50.580Z,33.53
2023-03-04T14:42:18.558Z,34.33
2023-03-04T14:44:49.101Z,33.53
2023-03-04T14:47:25.397Z,33.13
2023-03-04T14:49:53.255Z,31.83
2023-03-04T14:52:36.579Z,31.63
2023-03-04T14:55:28.050Z,32.87
2023-03-04T14:58:06.933Z,31.40
2023-03-04T15:00:36.363Z,30.83
2023-03-04T15:03:23.949Z,30.43
2023-03-04T15:05:54.001Z,31.00
2023-03-04T15:08:31.997Z,31.20
2023-03-04T15:11:01.283Z,30.73
2023-03-04T15:13:46.349Z,30.63
2023-03-04T15:16:15.527Z,33.00
2023-03-04T15:19:25.821Z,31.77
2023-03-04T15:21:53.674Z,31.37
2023-03-04T15:24:21.724Z,33.50
2023-03-04T15:26:51.774Z,32.40
2023-03-04T15:29:20.676Z,31.27
2023-03-04T15:31:51.885Z,31.73
2023-03-04T15:34:21.213Z,30.13
2023-03-04T15:36:50.673Z,32.40
2023-03-04T15:39:19.056Z,32.33
2023-03-04T15:41:49.609Z,31.60
2023-03-04T15:44:17.492Z,32.07
2023-03-04T15:46:45.302Z,32.73
2023-03-04T15:49:13.194Z,30.87
2023-03-04T15:51:41.031Z,31.50
2023-03-04T15:54:10.775Z,32.87
2023-03-04T15:56:38.800Z,32.30
2023-03-04T15:59:15.932Z,31.17
2023-03-04T16:01:44.187Z,31.43
2023-03-04T16:04:17.924Z,30.83
2023-03-04T16:06:46.578Z,31.10
2023-03-04T16:09:15.740Z,31.63
2023-03-04T16:11:46.712Z,31.17
2023-03-04T16:14:15.755Z,29.30
2023-03-04T16:16:45.234Z,30.63
2023-03-04T16:19:13.046Z,30.70
2023-03-04T16:21:40.780Z,31.93
2023-03-04T16:24:16.827Z,30.93
2023-03-04T16:26:44.682Z,30.30
2023-03-04T16:29:12.741Z,31.43
2023-03-04T16:31:40.700Z,31.87
2023-03-04T16:34:08.667Z,30.87
2023-03-04T16:36:36.580Z,31.77
2023-03-04T16:39:05.917Z,31.57
2023-03-04T16:41:33.688Z,31.87
2023-03-04T16:44:02.133Z,32.47
2023-03-04T16:46:31.109Z,31.13
2023-03-04T16:48:58.939Z,31.30
2023-03-04T16:51:26.695Z,31.13
2023-03-04T16:53:58.512Z,31.47
2023-03-04T16:56:26.329Z,31.10
2023-03-04T16:58:55.452Z,31.77
2023-03-04T17:01:25.113Z,30.23
2023-03-04T17:03:53.351Z,30.30
2023-03-04T17:06:22.090Z,30.47
2023-03-04T17:08:49.973Z,29.03
2023-03-04T17:11:19.450Z,29.50
2023-03-04T17:13:47.273Z,28.07
2023-03-04T17:16:16.421Z,29.93
2023-03-04T17:18:45.412Z,28.63
2023-03-04T17:21:18.030Z,29.47
2023-03-04T17:23:45.881Z,29.10
2023-03-04T17:26:14.409Z,28.00
2023-03-04T17:28:42.501Z,28.63
2023-03-04T17:31:13.551Z,29.60
2023-03-04T17:33:41.343Z,28.30
2023-03-04T17:36:11.826Z,28.57
2023-03-04T17:38:39.877Z,28.40
2023-03-04T17:41:09.340Z,27.23
2023-03-04T17:43:37.166Z,32.67
2023-03-04T17:46:09.728Z,29.77
2023-03-04T17:48:37.608Z,27.27
2023-03-04T17:51:06.861Z,28.73
2023-03-04T17:53:34.785Z,30.63
2023-03-04T17:56:03.825Z,30.43
2023-03-04T17:58:33.226Z,28.83
2023-03-04T18:01:12.600Z,30.43
2023-03-04T18:03:45.207Z,31.13
2023-03-04T18:06:13.202Z,29.37
2023-03-04T18:08:41.105Z,33.10
2023-03-04T18:11:08.916Z,30.63
2023-03-04T18:13:41.999Z,30.67
2023-03-04T18:16:15.275Z,29.17
2023-03-04T18:18:43.912Z,30.17
2023-03-04T18:21:11.825Z,27.67
2023-03-04T18:23:39.594Z,24.73
2023-03-04T18:26:07.577Z,20.63
2023-03-04T18:28:35.363Z,18.73
2023-03-04T18:31:03.258Z,23.85
2023-03-04T18:33:31.490Z,18.27
2023-03-04T18:36:03.651Z,16.20
2023-03-04T18:38:32.463Z,14.87
2023-03-04T18:41:01.379Z,15.40
2023-03-04T18:43:29.176Z,14.80
2023-03-04T18:46:18.225Z,14.17
2023-03-04T18:48:50.845Z,14.77
2023-03-04T18:51:18.632Z,14.53
2023-03-04T18:53:46.659Z,14.10
2023-03-04T18:56:16.971Z,15.00
2023-03-04T18:58:45.486Z,14.10
2023-03-04T19:01:13.387Z,14.03
2023-03-04T19:03:41.228Z,14.90
2023-03-04T19:06:09.263Z,13.90
2023-03-04T19:08:37.055Z,15.30
2023-03-04T19:11:07.010Z,15.23
2023-03-04T19:13:34.920Z,16.00
2023-03-04T19:16:02.722Z,16.23
2023-03-04T19:18:30.644Z,16.00
2023-03-04T19:21:01.712Z,16.40
2023-03-04T19:23:30.810Z,15.63
2023-03-04T19:25:58.672Z,16.30
2023-03-04T19:28:26.379Z,17.07
2023-03-04T19:30:55.032Z,16.57
2023-03-04T19:33:22.837Z,16.87
2023-03-04T19:35:50.806Z,16.90
2023-03-04T19:38:18.623Z,16.73
2023-03-04T19:40:47.959Z,17.47
2023-03-04T19:43:15.887Z,16.57
2023-03-04T19:45:43.889Z,16.70
2023-03-04T19:48:11.889Z,17.40
2023-03-04T19:50:39.865Z,16.63
2023-03-04T19:53:07.917Z,18.80
2023-03-04T19:55:38.786Z,16.90
2023-03-04T19:58:06.662Z,18.33
2023-03-04T20:00:34.576Z,18.80
2023-03-04T20:03:03.120Z,18.10
2023-03-04T20:05:31.113Z,18.57
2023-03-04T20:07:58.946Z,18.57
2023-03-04T20:10:26.753Z,18.70
2023-03-04T20:12:55.705Z,19.70
2023-03-04T20:15:23.566Z,19.67
2023-03-04T20:17:51.446Z,18.93
2023-03-04T20:20:19.435Z,18.47
2023-03-04T20:22:47.316Z,19.77
2023-03-04T20:25:15.124Z,19.23
2023-03-04T20:27:43.658Z,18.20
2023-03-04T20:30:12.284Z,19.43
2023-03-04T20:32:40.274Z,18.83
2023-03-04T20:35:08.758Z,18.30
2023-03-04T20:37:37.200Z,18.70
2023-03-04T20:40:05.239Z,18.07
2023-03-04T20:42:33.369Z,18.23
2023-03-04T20:45:01.240Z,19.20
2023-03-04T20:47:28.967Z,18.27
2023-03-04T20:49:56.739Z,18.10
2023-03-04T20:52:24.614Z,17.60
2023-03-04T20:54:52.397Z,19.97
2023-03-04T20:57:20.243Z,19.77
2023-03-04T20:59:48.025Z,19.67
2023-03-04T21:02:17.190Z,18.37
2023-03-04T21:04:45.128Z,20.10
2023-03-04T21:07:13.006Z,18.47
2023-03-04T21:09:40.911Z,17.97
2023-03-04T21:12:09.127Z,18.30
2023-03-04T21:14:37.048Z,19.00
2023-03-04T21:17:05.530Z,19.30
2023-03-04T21:19:35.157Z,18.50
2023-03-04T21:22:03.215Z,18.27
2023-03-04T21:24:32.454Z,18.70
2023-03-04T21:27:00.308Z,19.23
2023-03-04T21:29:29.260Z,18.67
2023-03-04T21:32:16.755Z,17.77
2023-03-04T21:34:50.540Z,19.60
2023-03-04T21:37:18.897Z,17.67
2023-03-04T21:39:46.874Z,18.53
2023-03-04T21:42:14.833Z,19.63
2023-03-04T21:44:49.679Z,18.70
2023-03-04T21:47:18.384Z,19.67
2023-03-04T21:49:46.325Z,18.67
2023-03-04T21:52:14.360Z,19.13
2023-03-04T21:54:42.154Z,18.63
2023-03-04T21:57:10.064Z,18.03
2023-03-04T21:59:38.757Z,18.83
2023-03-04T22:02:06.780Z,18.47
2023-03-04T22:04:34.802Z,18.80
2023-03-04T22:07:03.010Z,18.43
2023-03-04T22:09:30.852Z,18.60
2023-03-04T22:11:58.624Z,19.47
2023-03-04T22:14:28.813Z,18.03
2023-03-04T22:16:57.632Z,19.23
2023-03-04T22:19:26.230Z,18.97
2023-03-04T22:21:54.213Z,18.83
2023-03-04T22:24:22.098Z,18.80
2023-03-04T22:26:49.978Z,19.63
2023-03-04T22:29:17.832Z,18.93
2023-03-04T22:31:46.156Z,18.93
2023-03-04T22:34:15.026Z,19.13
2023-03-04T22:36:44.476Z,18.27
2023-03-04T22:39:14.402Z,18.83
2023-03-04T22:41:42.422Z,17.03
2023-03-04T22:44:10.236Z,17.77
2023-03-04T22:46:39.467Z,19.63
2023-03-04T22:49:10.776Z,19.77
2023-03-04T22:51:39.193Z,18.77
2023-03-04T22:54:07.011Z,19.00
2023-03-04T22:56:34.953Z,18.93
2023-03-04T22:59:02.767Z,18.03
2023-03-04T23:01:30.722Z,18.70
2023-03-04T23:03:58.543Z,16.77
2023-03-04T23:06:28.778Z,16.80
2023-03-04T23:08:56.909Z,15.93
2023-03-04T23:11:27.595Z,17.33
2023-03-04T23:13:55.555Z,17.20
2023-03-04T23:16:24.035Z,17.13
2023-03-04T23:18:52.286Z,16.10
2023-03-04T23:21:21.943Z,17.77
2023-03-04T23:23:49.865Z,16.77
2023-03-04T23:26:19.785Z,16.83
2023-03-04T23:28:47.652Z,18.03
2023-03-04T23:31:18.443Z,17.17
2023-03-04T23:33:47.728Z,15.33
2023-03-04T23:36:18.048Z,16.67
2023-03-04T23:38:46.724Z,16.67
2023-03-04T23:41:18.624Z,16.77
2023-03-04T23:43:46.773Z,16.63
2023-03-04T23:46:15.016Z,16.93
2023-03-04T23:48:44.372Z,16.43
2023-03-04T23:51:12.403Z,16.70
2023-03-04T23:53:40.251Z,18.10
2023-03-04T23:56:11.968Z,17.53
2023-03-04T23:58:39.794Z,19.43
